In Rescue
 
Open Full Screen Window  High Contrast Mode
September 19, 2019 3:55 PM CDT
Weather Information
Wind Direction
  ---
Wind Speed
  00 kt (0 mph)
Wind Gust
  00 kt (0 mph)
Altimeter
29.98 in
Visibility
10 SM
Temperature
29° C
84° F
Dewpoint
17° C
63° F
Humidity
48%
1hr Rain Fall
00.00 in.
24hr Rain Fall
00.05 in.
Sky Condition
Clear
VFR

METAR KPNM 192055Z AUTO 00000KT 10SM CLR 29/17 A2998 RMK AO2

FAA Disclaimer: The data displayed is for advisory purposes only and is not to be used for flight planning or operations.